Time;durP1;ratioP1;P1;durP2;ratioP2;P2;SDS_P1;SDS_P2;PMS_P1;PMS_P2;Temp;Humidity;BMP_temperature;BMP_pressure;BME280_temperature;BME280_humidity;BME280_pressure;Samples;Min_cycle;Max_cycle;Signal;HPM_P1;HPM_P2
2024/01/17 00:00:50;;;;;;;17.33;15.47;;;;;;;20.75;26.68;94954.16;6153536;28;110584;-52
2024/01/17 00:03:53;;;;;;;16.90;15.10;;;;;;;20.75;26.38;94946.97;6157809;28;109320;-52
2024/01/17 00:06:57;;;;;;;18.20;16.33;;;;;;;20.72;26.74;94939.59;6158604;28;109574;-52
2024/01/17 00:10:00;;;;;;;17.60;15.80;;;;;;;20.74;26.92;94944.63;6149414;28;110997;-52
2024/01/17 00:13:04;;;;;;;18.17;16.37;;;;;;;20.75;26.12;94943.53;6158202;28;109059;-52
2024/01/17 00:16:07;;;;;;;16.67;15.07;;;;;;;20.72;26.36;94952.91;6158767;28;109155;-52
2024/01/17 00:19:10;;;;;;;16.87;15.17;;;;;;;20.71;26.46;94946.00;6159475;28;110235;-52
2024/01/17 00:22:15;;;;;;;17.07;15.27;;;;;;;20.71;26.51;94955.88;6147653;28;110777;-53
2024/01/17 00:25:18;;;;;;;17.40;15.60;;;;;;;20.75;26.39;94964.81;6159325;28;110216;-52
2024/01/17 00:28:22;;;;;;;18.40;16.50;;;;;;;20.69;26.68;94950.84;6155305;28;110205;-52
2024/01/17 00:31:25;;;;;;;19.87;16.50;;;;;;;20.71;26.34;94964.63;6158026;28;109899;-52
2024/01/17 00:34:28;;;;;;;18.00;16.10;;;;;;;20.71;26.54;94971.81;6148166;28;110572;-52
2024/01/17 00:37:32;;;;;;;18.50;16.60;;;;;;;20.70;26.27;94978.22;6158760;28;109080;-52
2024/01/17 00:40:35;;;;;;;17.40;15.60;;;;;;;20.69;26.46;94963.34;6157278;28;110141;-52
2024/01/17 00:43:39;;;;;;;17.00;15.30;;;;;;;20.72;26.29;94960.88;6151185;28;109166;-52
2024/01/17 00:46:42;;;;;;;16.20;14.70;;;;;;;20.72;26.72;94960.88;6155930;28;109295;-52
2024/01/17 00:49:45;;;;;;;17.17;15.47;;;;;;;20.73;26.44;94948.38;6158115;28;109595;-52
2024/01/17 00:52:48;;;;;;;16.33;14.73;;;;;;;20.76;26.46;94950.41;6157089;28;109082;-52
2024/01/17 00:55:51;;;;;;;16.30;14.40;;;;;;;20.74;26.74;94944.63;6147284;28;111513;-52
2024/01/17 00:58:56;;;;;;;17.17;15.40;;;;;;;20.76;26.59;94945.88;6158712;28;110697;-52
2024/01/17 01:02:01;;;;;;;17.47;15.77;;;;;;;20.75;26.45;94944.31;6149678;28;109090;-52
2024/01/17 01:05:05;;;;;;;15.80;14.20;;;;;;;20.69;26.86;94934.88;6157876;28;110700;-52
2024/01/17 01:08:08;;;;;;;16.60;14.97;;;;;;;20.75;26.53;94935.56;6147460;28;110210;-52
2024/01/17 01:11:11;;;;;;;16.30;14.43;;;;;;;20.75;26.52;94928.38;6157649;28;110595;-52
2024/01/17 01:14:16;;;;;;;15.60;14.00;;;;;;;20.71;26.85;94926.63;6158171;28;110175;-53
2024/01/17 01:17:19;;;;;;;16.30;14.63;;;;;;;20.70;26.61;94930.34;6153145;28;110180;-52
2024/01/17 01:20:22;;;;;;;15.27;13.67;;;;;;;20.68;26.59;94925.34;6151927;28;110159;-52
2024/01/17 01:23:26;;;;;;;16.23;14.53;;;;;;;20.68;26.62;94928.00;6158262;28;109296;-52
2024/01/17 01:26:29;;;;;;;16.03;14.33;;;;;;;20.69;26.48;94918.94;6157681;28;109481;-52
2024/01/17 01:29:34;;;;;;;15.83;14.23;;;;;;;20.65;26.80;94915.28;6147097;28;109091;-52
2024/01/17 01:32:37;;;;;;;15.33;13.73;;;;;;;20.62;26.65;94916.66;6157056;28;109087;-52
2024/01/17 01:35:40;;;;;;;14.77;13.27;;;;;;;20.61;26.60;94930.25;6157511;28;109110;-52
2024/01/17 01:38:43;;;;;;;15.43;13.60;;;;;;;20.60;26.65;94934.00;6157200;28;109297;-52
2024/01/17 01:41:46;;;;;;;15.93;14.43;;;;;;;20.61;26.52;94938.25;6148081;28;110134;-52
2024/01/17 01:44:51;;;;;;;14.77;13.43;;;;;;;20.65;26.75;94951.72;6157281;28;109750;-52
2024/01/17 01:47:54;;;;;;;14.73;13.30;;;;;;;20.61;26.80;94964.81;6157099;28;109158;-52
2024/01/17 01:50:57;;;;;;;14.73;13.33;;;;;;;20.60;26.45;94957.94;6157265;28;108925;-52
2024/01/17 01:54:03;;;;;;;15.80;14.20;;;;;;;20.61;26.37;94946.22;6147075;28;110927;-52
2024/01/17 01:57:07;;;;;;;14.80;13.40;;;;;;;20.61;26.75;94954.19;6157287;28;110190;-52
2024/01/17 02:00:14;;;;;;;15.93;14.33;;;;;;;20.59;26.28;94945.72;6158017;28;110626;-52
2024/01/17 02:03:17;;;;;;;14.77;13.37;;;;;;;20.60;26.45;94949.97;6136263;28;109484;-54
2024/01/17 02:06:21;;;;;;;15.27;13.83;;;;;;;20.61;26.43;94948.88;6160235;28;109103;-53
2024/01/17 02:09:26;;;;;;;15.20;13.80;;;;;;;20.59;26.40;94945.72;6161654;28;109240;-53
2024/01/17 02:12:29;;;;;;;15.63;14.07;;;;;;;20.57;26.43;94942.59;6161345;28;110000;-53
2024/01/17 02:15:34;;;;;;;15.13;13.63;;;;;;;20.58;26.59;94941.50;6150362;28;110247;-53
2024/01/17 02:18:37;;;;;;;15.20;13.60;;;;;;;20.57;26.57;94943.38;6161267;28;109181;-53
2024/01/17 02:21:40;;;;;;;16.10;14.53;;;;;;;20.56;26.53;94936.47;6159706;28;109063;-53
2024/01/17 02:24:45;;;;;;;15.97;14.27;;;;;;;20.55;26.43;94936.78;6161455;28;109162;-52
2024/01/17 02:27:48;;;;;;;16.80;15.17;;;;;;;20.51;26.42;94933.16;6149691;28;110018;-53
2024/01/17 02:30:51;;;;;;;15.40;13.90;;;;;;;20.54;26.36;94924.56;6160413;28;109244;-53
2024/01/17 02:33:54;;;;;;;16.57;14.90;;;;;;;20.53;26.36;94928.31;6160873;28;110354;-53
2024/01/17 02:36:57;;;;;;;16.63;15.03;;;;;;;20.53;26.45;94934.44;6154012;28;109568;-53
2024/01/17 02:40:02;;;;;;;16.13;14.53;;;;;;;20.52;26.15;94927.53;6155035;28;110190;-53
2024/01/17 02:43:05;;;;;;;17.63;15.73;;;;;;;20.50;26.55;94923.56;6161011;28;109126;-53
2024/01/17 02:46:09;;;;;;;16.13;14.53;;;;;;;20.53;26.24;94921.13;6160987;28;109898;-53
2024/01/17 02:49:19;;;;;;;16.37;14.67;;;;;;;20.54;26.52;94919.25;6149632;28;110296;-53
2024/01/17 02:52:22;;;;;;;17.17;15.47;;;;;;;20.52;26.29;94914.25;6160541;28;110664;-53
2024/01/17 02:55:26;;;;;;;17.30;15.57;;;;;;;20.52;26.10;94924.88;6159869;28;109540;-53
2024/01/17 02:58:29;;;;;;;16.97;15.27;;;;;;;20.55;26.44;94924.28;6160987;28;110328;-52
2024/01/17 03:01:33;;;;;;;18.60;16.10;;;;;;;20.52;26.29;94924.88;6148429;28;109244;-53
2024/01/17 03:04:36;;;;;;;18.13;16.43;;;;;;;20.55;26.26;94920.84;6159804;28;110263;-53
2024/01/17 03:07:39;;;;;;;17.90;16.10;;;;;;;20.55;26.31;94924.28;6160321;28;110047;-53
2024/01/17 03:10:43;;;;;;;17.83;16.00;;;;;;;20.56;26.14;94922.41;6160211;28;110395;-53
2024/01/17 03:13:47;;;;;;;17.47;15.70;;;;;;;20.55;26.22;94928.81;6151127;28;110223;-52
2024/01/17 03:16:50;;;;;;;17.67;15.90;;;;;;;20.56;26.10;94936.47;6159260;28;110087;-52
2024/01/17 03:19:54;;;;;;;17.63;15.87;;;;;;;20.56;26.14;94925.84;6159722;28;110604;-52
2024/01/17 03:22:57;;;;;;;19.00;17.10;;;;;;;20.55;26.32;94923.50;6149405;28;110151;-53
2024/01/17 03:26:01;;;;;;;18.40;16.60;;;;;;;20.57;26.08;94926.63;6159895;28;109846;-52
2024/01/17 03:29:05;;;;;;;17.73;15.93;;;;;;;20.58;26.16;94917.56;6159206;28;110064;-52
2024/01/17 03:32:08;;;;;;;19.17;17.37;;;;;;;20.57;26.26;94919.44;6159096;28;109168;-52
2024/01/17 03:35:11;;;;;;;17.17;15.50;;;;;;;20.60;26.25;94913.53;6149221;28;110309;-53
2024/01/17 03:38:18;;;;;;;17.43;15.70;;;;;;;20.58;26.13;94909.59;6171512;28;109193;-52
2024/01/17 03:41:22;;;;;;;18.37;16.57;;;;;;;20.56;26.16;94914.44;6160056;28;109064;-52
2024/01/17 03:44:26;;;;;;;17.90;16.30;;;;;;;20.59;26.12;94908.50;6159816;28;109387;-52
2024/01/17 03:47:29;;;;;;;17.90;16.10;;;;;;;20.58;26.29;94912.25;6148603;28;111078;-53
2024/01/17 03:50:33;;;;;;;17.80;16.03;;;;;;;20.57;26.13;94900.84;6157653;28;109118;-52
2024/01/17 03:53:36;;;;;;;17.60;15.90;;;;;;;20.57;26.17;94905.38;6159912;28;109292;-52
2024/01/17 03:56:41;;;;;;;17.97;16.27;;;;;;;20.57;26.05;94902.72;6153526;28;109097;-52
2024/01/17 03:59:44;;;;;;;18.43;16.70;;;;;;;20.57;26.21;94905.38;6150089;28;109130;-52
2024/01/17 04:02:47;;;;;;;16.67;15.07;;;;;;;20.55;26.17;94920.84;6156990;28;110859;-53
2024/01/17 04:05:50;;;;;;;18.10;16.20;;;;;;;20.52;26.02;94935.50;6158947;28;109109;-53
2024/01/17 04:08:54;;;;;;;17.30;15.50;;;;;;;20.54;27.13;94948.50;6147635;28;110571;-53
2024/01/17 04:11:59;;;;;;;16.97;15.27;;;;;;;20.66;26.21;94955.94;6159064;28;109796;-53
2024/01/17 04:15:02;;;;;;;17.20;15.50;;;;;;;20.69;26.46;94961.47;6158507;28;109640;-52
2024/01/17 04:18:05;;;;;;;18.13;16.30;;;;;;;20.71;26.28;94969.94;6158143;28;109671;-53
2024/01/17 04:21:08;;;;;;;19.87;18.07;;;;;;;20.66;26.71;94971.91;6146737;28;109118;-56
2024/01/17 04:24:11;;;;;;;18.40;16.60;;;;;;;20.49;26.87;94961.88;6160631;28;109087;-57
2024/01/17 04:27:16;;;;;;;19.10;17.20;;;;;;;20.37;27.10;94945.66;6158290;28;109016;-57
2024/01/17 04:30:19;;;;;;;19.53;17.63;;;;;;;20.37;27.03;94943.78;6156358;28;109336;-56
2024/01/17 04:33:22;;;;;;;18.90;17.10;;;;;;;20.34;26.94;94963.00;6149262;28;109157;-58
2024/01/17 04:36:28;;;;;;;18.43;16.73;;;;;;;20.32;27.09;94959.81;6157765;28;110065;-58
2024/01/17 04:39:31;;;;;;;18.73;16.93;;;;;;;20.28;27.01;94956.19;6157448;28;110451;-58
2024/01/17 04:42:36;;;;;;;20.03;18.07;;;;;;;20.22;27.18;94963.44;6147555;28;109879;-58
2024/01/17 04:45:39;;;;;;;18.90;17.00;;;;;;;20.12;27.43;94958.31;6157607;28;110618;-58
2024/01/17 04:48:43;;;;;;;21.00;18.93;;;;;;;20.08;27.37;94957.34;6158289;28;109135;-57
2024/01/17 04:51:46;;;;;;;20.30;18.10;;;;;;;20.12;27.38;94960.97;6157748;28;109029;-57
2024/01/17 04:54:49;;;;;;;20.20;18.20;;;;;;;20.10;27.47;94954.38;6147211;28;110257;-57
2024/01/17 04:57:54;;;;;;;19.80;17.90;;;;;;;20.13;27.49;94954.56;6157281;28;109193;-58
2024/01/17 05:00:57;;;;;;;23.03;17.87;;;;;;;20.18;27.27;94949.19;6161203;28;108997;-57
2024/01/17 05:04:00;;;;;;;18.63;16.87;;;;;;;20.16;27.56;94969.91;6177800;28;110183;-58
2024/01/17 05:07:03;;;;;;;18.67;16.93;;;;;;;20.38;27.19;94979.13;6148083;28;110151;-60
2024/01/17 05:10:07;;;;;;;19.17;17.27;;;;;;;20.47;27.23;94990.63;6157842;28;109278;-57
2024/01/17 05:13:12;;;;;;;26.23;23.67;;;;;;;20.11;26.81;95003.78;6157978;28;109144;-58
2024/01/17 05:16:16;;;;;;;24.30;21.80;;;;;;;20.19;26.57;95014.53;6151010;28;110157;-54
2024/01/17 05:19:19;;;;;;;22.67;20.60;;;;;;;20.54;26.20;94996.34;6152382;28;109293;-54
2024/01/17 05:22:22;;;;;;;22.40;20.20;;;;;;;20.69;25.84;94976.66;6157544;28;108889;-54
2024/01/17 05:25:25;;;;;;;21.37;19.37;;;;;;;20.76;25.43;94967.16;6157613;28;109432;-54
2024/01/17 05:28:30;;;;;;;20.70;18.70;;;;;;;20.80;25.60;94949.53;6147617;28;110136;-54
2024/01/17 05:31:33;;;;;;;20.97;18.97;;;;;;;20.82;25.59;94957.97;6145375;28;109143;-54
2024/01/17 05:34:37;;;;;;;20.67;18.60;;;;;;;20.84;25.25;94963.03;6136639;28;110216;-52
2024/01/17 05:37:41;;;;;;;21.97;19.87;;;;;;;20.86;25.19;94980.25;6161904;28;110034;-52
2024/01/17 05:40:44;;;;;;;20.50;18.67;;;;;;;20.92;25.18;94976.38;6151644;28;109360;-52
2024/01/17 05:43:49;;;;;;;18.73;17.03;;;;;;;20.90;25.25;94972.47;6161940;28;109030;-52
2024/01/17 05:46:52;;;;;;;20.03;18.13;;;;;;;20.95;25.11;94966.22;6161477;28;109119;-50
2024/01/17 05:49:56;;;;;;;21.60;19.50;;;;;;;20.93;25.46;94967.31;6157637;28;109600;-50
2024/01/17 05:52:59;;;;;;;19.27;17.37;;;;;;;20.97;25.26;94964.06;6155674;28;110111;-51
2024/01/17 05:56:03;;;;;;;20.50;18.50;;;;;;;21.00;25.26;94958.13;6161500;28;109239;-51
2024/01/17 05:59:08;;;;;;;18.93;17.20;;;;;;;20.96;25.03;94975.78;6161550;28;109121;-51
2024/01/17 06:02:11;;;;;;;21.03;18.97;;;;;;;21.01;24.91;94991.66;6150618;28;109409;-51
2024/01/17 06:05:15;;;;;;;20.07;17.87;;;;;;;21.01;24.97;94984.47;6161269;28;110445;-51
2024/01/17 06:08:18;;;;;;;19.40;17.57;;;;;;;21.02;24.99;94977.25;6161557;28;109124;-51
2024/01/17 06:11:22;;;;;;;19.73;17.87;;;;;;;21.07;24.89;94979.84;6160849;28;108975;-52
2024/01/17 06:14:26;;;;;;;20.40;18.50;;;;;;;21.08;25.17;94968.09;6151857;28;110197;-51
2024/01/17 06:17:29;;;;;;;18.43;16.73;;;;;;;21.07;25.05;94955.88;6160514;28;109106;-51
2024/01/17 06:20:33;;;;;;;18.70;17.00;;;;;;;21.03;24.95;94942.38;6161174;28;110305;-51
2024/01/17 06:23:37;;;;;;;18.00;16.30;;;;;;;21.11;25.01;94952.31;6161363;28;110134;-51
2024/01/17 06:26:40;;;;;;;18.77;17.07;;;;;;;21.25;24.94;94954.94;6149981;28;109069;-51
2024/01/17 06:29:45;;;;;;;18.30;16.70;;;;;;;21.37;25.01;94960.50;6161119;28;110076;-52
2024/01/17 06:32:49;;;;;;;18.87;17.20;;;;;;;21.42;25.15;94971.03;6160991;28;109110;-52
2024/01/17 06:35:52;;;;;;;18.80;17.10;;;;;;;21.44;24.86;94965.41;6155910;28;109109;-51
2024/01/17 06:38:55;;;;;;;18.57;16.77;;;;;;;21.47;24.98;94986.88;6155198;28;109310;-51
2024/01/17 06:41:59;;;;;;;17.90;16.20;;;;;;;21.52;25.37;94978.78;6160257;28;109191;-51
2024/01/17 06:45:04;;;;;;;18.13;16.37;;;;;;;21.52;25.16;94970.78;6160866;28;109582;-54
2024/01/17 06:48:07;;;;;;;17.77;16.10;;;;;;;21.53;25.29;94979.56;6148133;28;109489;-54
2024/01/17 06:51:10;;;;;;;16.60;15.10;;;;;;;21.52;25.09;94984.09;6160622;28;109040;-54
2024/01/17 06:54:13;;;;;;;17.57;15.97;;;;;;;21.56;25.47;94976.28;6160443;28;109161;-54
2024/01/17 06:57:17;;;;;;;17.27;15.67;;;;;;;21.58;25.34;94997.28;6160016;28;109511;-54
2024/01/17 07:00:21;;;;;;;17.23;15.50;;;;;;;21.64;25.44;94996.06;6150321;28;109293;-54
2024/01/17 07:03:25;;;;;;;16.33;14.83;;;;;;;21.70;25.05;94992.22;6160405;28;109270;-52
2024/01/17 07:06:28;;;;;;;17.53;15.87;;;;;;;21.70;25.51;94978.88;6160193;28;110645;-53
2024/01/17 07:09:31;;;;;;;17.50;15.93;;;;;;;21.66;25.56;94961.94;6155997;28;109062;-62
2024/01/17 07:12:34;;;;;;;18.53;16.37;;;;;;;20.99;26.59;94977.84;6154471;28;110257;-58
2024/01/17 07:15:38;;;;;;;18.87;17.27;;;;;;;20.69;26.58;94969.47;6159795;28;110127;-57
2024/01/17 07:18:41;;;;;;;17.50;15.90;;;;;;;20.62;26.88;94971.72;6159905;28;109709;-57
2024/01/17 07:21:45;;;;;;;19.00;17.10;;;;;;;20.71;26.62;94956.66;6149726;28;110236;-56
2024/01/17 07:24:48;;;;;;;18.50;16.73;;;;;;;20.77;26.48;94958.09;6159698;28;110106;-57
2024/01/17 07:27:51;;;;;;;18.30;16.60;;;;;;;20.62;26.63;94953.09;6159507;28;109251;-57
2024/01/17 07:30:55;;;;;;;18.43;16.67;;;;;;;20.57;26.52;94979.81;6159841;28;110795;-57
2024/01/17 07:33:58;;;;;;;18.30;16.70;;;;;;;20.52;26.76;94983.34;6149300;28;110194;-57
2024/01/17 07:37:01;;;;;;;20.07;18.10;;;;;;;20.52;26.76;94994.00;6159817;28;110140;-57
2024/01/17 07:40:05;;;;;;;19.27;17.57;;;;;;;20.50;27.08;95003.31;6159575;28;108801;-57
2024/01/17 07:43:08;;;;;;;19.27;17.37;;;;;;;20.44;26.57;94984.03;6159139;28;109134;-57
2024/01/17 07:46:13;;;;;;;18.93;17.17;;;;;;;20.49;26.58;94993.78;6148574;28;109246;-56
2024/01/17 07:49:16;;;;;;;19.67;17.87;;;;;;;20.48;26.55;94989.53;6159552;28;109293;-57
2024/01/17 07:52:20;;;;;;;20.73;18.80;;;;;;;20.45;26.77;94990.13;6159516;28;110080;-57
2024/01/17 07:55:23;;;;;;;20.57;18.67;;;;;;;20.49;26.57;94983.13;6154560;28;109222;-55
2024/01/17 07:58:26;;;;;;;21.03;19.03;;;;;;;20.60;26.39;94990.63;6153428;28;109330;-54
2024/01/17 08:01:31;;;;;;;21.20;19.30;;;;;;;20.60;26.63;94980.00;6159306;28;109867;-55
2024/01/17 08:04:34;;;;;;;21.10;19.10;;;;;;;20.66;26.52;94985.19;6159464;28;110088;-54
2024/01/17 08:07:38;;;;;;;20.30;18.50;;;;;;;20.62;26.65;94971.72;6148041;28;110045;-54
2024/01/17 08:10:41;;;;;;;20.40;18.47;;;;;;;20.59;26.74;94967.00;6159175;28;109444;-54
2024/01/17 08:13:45;;;;;;;20.13;18.23;;;;;;;20.57;26.66;94977.94;6158493;28;109186;-54
2024/01/17 08:16:50;;;;;;;21.43;19.43;;;;;;;20.58;26.66;94981.38;6158210;28;110261;-54
2024/01/17 08:19:53;;;;;;;20.97;19.17;;;;;;;20.57;26.43;94985.91;6147975;28;109247;-54
2024/01/17 08:22:57;;;;;;;20.27;18.40;;;;;;;20.58;26.68;94992.00;6158695;28;109182;-54
2024/01/17 08:26:00;;;;;;;20.03;18.17;;;;;;;20.60;26.46;94992.50;6158735;28;109283;-54
2024/01/17 08:29:04;;;;;;;20.67;18.77;;;;;;;20.61;26.60;94991.41;6154168;28;109144;-54
2024/01/17 08:32:08;;;;;;;20.63;18.83;;;;;;;20.66;26.58;94988.63;6152369;28;109108;-54
2024/01/17 08:35:13;;;;;;;21.30;19.30;;;;;;;20.66;26.47;94996.63;6158876;28;109087;-54
2024/01/17 08:38:16;;;;;;;21.37;19.47;;;;;;;20.65;26.64;94992.38;6158441;28;109206;-54
2024/01/17 08:41:19;;;;;;;21.03;19.23;;;;;;;20.61;26.75;94976.25;6148598;28;110088;-55
2024/01/17 08:44:23;;;;;;;22.53;20.13;;;;;;;20.55;26.94;94972.13;6158193;28;110187;-55
2024/01/17 08:47:27;;;;;;;21.90;19.73;;;;;;;20.50;27.18;94982.06;6158224;28;109136;-54
2024/01/17 08:50:31;;;;;;;21.00;18.90;;;;;;;20.47;26.84;94988.75;6158571;28;110264;-54
2024/01/17 08:53:34;;;;;;;21.50;19.40;;;;;;;20.45;26.88;94990.94;6147307;28;109159;-54
2024/01/17 08:56:37;;;;;;;21.53;19.30;;;;;;;20.42;27.15;94998.72;6158084;28;110190;-54
2024/01/17 08:59:40;;;;;;;20.90;18.80;;;;;;;20.38;27.11;94987.09;6158213;28;110248;-54
2024/01/17 09:02:44;;;;;;;20.80;18.87;;;;;;;20.35;27.07;94993.00;6157934;28;110401;-54
2024/01/17 09:05:48;;;;;;;20.77;18.70;;;;;;;20.31;27.13;95003.41;6148517;28;110023;-54
2024/01/17 09:08:51;;;;;;;20.30;18.23;;;;;;;20.37;27.00;94994.28;6157809;28;109249;-54
2024/01/17 09:11:54;;;;;;;20.70;18.80;;;;;;;20.41;26.75;94991.81;6157029;28;109607;-54
2024/01/17 09:14:57;;;;;;;20.73;18.90;;;;;;;20.38;27.01;94984.44;6152583;28;110100;-54
2024/01/17 09:18:04;;;;;;;19.23;17.33;;;;;;;20.36;27.05;94986.63;6153225;28;109465;-54
2024/01/17 09:21:07;;;;;;;19.87;17.97;;;;;;;20.24;27.10;94971.13;6158185;28;110088;-54
2024/01/17 09:24:10;;;;;;;20.40;18.30;;;;;;;20.17;27.16;94982.16;6157936;28;109598;-54
2024/01/17 09:27:13;;;;;;;19.77;17.47;;;;;;;20.22;27.11;94968.75;6147345;28;108821;-54
2024/01/17 09:30:17;;;;;;;18.57;16.83;;;;;;;20.28;27.17;94956.19;6157847;28;109240;-54
2024/01/17 09:33:21;;;;;;;19.27;17.40;;;;;;;20.29;26.90;94958.53;6157756;28;109076;-55
2024/01/17 09:36:25;;;;;;;19.73;17.93;;;;;;;20.27;27.22;94950.09;6158056;28;110552;-54
2024/01/17 09:39:30;;;;;;;18.57;16.70;;;;;;;20.25;27.23;94941.63;6146803;28;109342;-54
2024/01/17 09:42:33;;;;;;;18.30;16.60;;;;;;;20.25;27.28;94948.81;6157780;28;109294;-54
2024/01/17 09:45:36;;;;;;;17.60;15.80;;;;;;;20.21;27.20;94930.00;6157439;28;109104;-54
2024/01/17 09:48:41;;;;;;;18.53;16.83;;;;;;;20.14;27.31;94940.22;6152944;28;110159;-55
2024/01/17 09:51:45;;;;;;;18.63;16.87;;;;;;;20.03;27.75;94938.84;6151603;28;109074;-54
2024/01/17 09:54:51;;;;;;;17.70;16.20;;;;;;;19.96;27.80;94933.13;6133532;28;110280;-54
2024/01/17 09:57:56;;;;;;;19.23;17.30;;;;;;;19.91;27.97;94910.13;6142505;28;110154;-54
2024/01/17 10:01:02;;;;;;;18.53;16.73;;;;;;;19.88;27.96;94909.91;6147076;28;110279;-54
2024/01/17 10:04:08;;;;;;;17.17;15.37;;;;;;;19.86;27.84;94906.78;6157071;28;109129;-54
2024/01/17 10:07:12;;;;;;;17.10;15.43;;;;;;;19.81;28.20;94899.66;6157716;28;110112;-54
2024/01/17 10:10:16;;;;;;;19.17;17.27;;;;;;;19.80;28.01;94897.31;6157597;28;110176;-54
2024/01/17 10:13:19;;;;;;;17.60;15.83;;;;;;;19.78;28.20;94894.94;6146579;28;110048;-54
2024/01/17 10:16:23;;;;;;;18.20;16.50;;;;;;;19.76;27.93;94901.66;6156914;28;110567;-53
2024/01/17 10:19:27;;;;;;;17.87;16.27;;;;;;;19.72;27.98;94896.94;6157080;28;109644;-53
2024/01/17 10:22:31;;;;;;;17.43;15.77;;;;;;;19.70;27.95;94898.31;6158136;28;109327;-53
2024/01/17 10:25:38;;;;;;;17.03;15.43;;;;;;;19.68;28.01;94885.31;6151720;28;110264;-53
2024/01/17 10:28:41;;;;;;;18.10;16.50;;;;;;;19.67;28.13;94882.97;6161415;28;110414;-53
2024/01/17 10:31:45;;;;;;;17.60;15.80;;;;;;;19.65;28.01;94864.66;6161328;28;109234;-53
2024/01/17 10:34:49;;;;;;;16.40;14.80;;;;;;;19.65;28.02;94858.56;6151263;28;109763;-53
2024/01/17 10:37:53;;;;;;;18.67;17.10;;;;;;;19.63;27.94;94861.50;6160711;28;110364;-53
2024/01/17 10:41:04;;;;;;;18.43;16.67;;;;;;;19.66;27.82;94863.59;6160922;28;109438;-53
2024/01/17 10:44:07;;;;;;;19.10;17.03;;;;;;;19.68;27.97;94850.81;6160816;28;109270;-53
2024/01/17 10:47:10;;;;;;;18.50;16.73;;;;;;;19.69;27.82;94844.44;6149661;28;109728;-53
2024/01/17 10:50:15;;;;;;;18.10;16.40;;;;;;;19.68;27.79;94847.38;6160879;28;110129;-53
2024/01/17 10:53:19;;;;;;;18.30;16.40;;;;;;;19.66;28.01;94839.72;6160866;28;111234;-52
2024/01/17 10:56:23;;;;;;;18.40;16.70;;;;;;;19.63;27.90;94823.56;6160778;28;110241;-53
2024/01/17 10:59:27;;;;;;;18.40;16.70;;;;;;;19.62;27.96;94820.13;6149176;28;109076;-54
2024/01/17 11:02:32;;;;;;;18.20;16.33;;;;;;;19.60;28.02;94822.28;6160436;28;110380;-53
2024/01/17 11:05:45;;;;;;;18.60;16.80;;;;;;;19.61;27.85;94815.91;6160114;28;109171;-53
2024/01/17 11:08:50;;;;;;;18.83;17.10;;;;;;;19.62;27.78;94796.25;6151968;28;109047;-54
2024/01/17 11:11:54;;;;;;;18.33;16.53;;;;;;;19.58;27.94;94795.25;6159971;28;110141;-53
2024/01/17 11:15:00;;;;;;;18.10;16.50;;;;;;;19.56;27.94;94792.13;6159399;28;109386;-53
2024/01/17 11:18:09;;;;;;;18.73;16.97;;;;;;;19.57;27.96;94783.06;6159554;28;109363;-53
2024/01/17 11:21:20;;;;;;;17.90;16.20;;;;;;;19.56;27.85;94775.41;6150001;28;108757;-53
2024/01/17 11:24:35;;;;;;;18.73;17.10;;;;;;;19.53;27.89;94766.19;6159643;28;109299;-53
2024/01/17 11:27:43;;;;;;;18.03;16.50;;;;;;;19.51;27.91;94775.53;6160274;28;110131;-55
2024/01/17 11:31:02;;;;;;;18.90;17.20;;;;;;;19.53;27.97;94776.78;6158471;28;110218;-54
2024/01/17 11:34:05;;;;;;;18.53;16.73;;;;;;;19.54;27.96;94780.22;6153770;28;109261;-55
2024/01/17 11:37:10;;;;;;;19.07;17.17;;;;;;;19.53;27.75;94766.19;6159769;28;109653;-55
2024/01/17 11:40:16;;;;;;;19.07;17.20;;;;;;;19.54;27.73;94767.75;6159800;28;109620;-55
2024/01/17 11:43:20;;;;;;;18.83;17.00;;;;;;;19.52;27.92;94764.59;6149192;28;110080;-55
2024/01/17 11:46:24;;;;;;;18.40;16.70;;;;;;;19.51;27.81;94755.06;6159695;28;110066;-55
2024/01/17 11:49:41;;;;;;;18.10;16.60;;;;;;;19.47;27.83;94756.72;6159334;28;109475;-55
2024/01/17 11:52:47;;;;;;;18.30;16.60;;;;;;;19.47;27.92;94758.59;6159489;28;109092;-55
2024/01/17 11:55:50;;;;;;;17.77;16.13;;;;;;;19.46;27.83;94733.94;6149316;28;110033;-54
2024/01/17 11:58:58;;;;;;;18.27;16.57;;;;;;;19.43;27.61;94730.00;6159538;28;110296;-54
2024/01/17 12:02:01;;;;;;;18.50;16.77;;;;;;;19.43;28.02;94737.19;6159551;28;109190;-55
2024/01/17 12:05:05;;;;;;;18.90;17.00;;;;;;;19.42;27.96;94735.59;6155097;28;109894;-55
2024/01/17 12:08:11;;;;;;;21.40;19.33;;;;;;;19.38;28.25;94738.03;6153440;28;110976;-50
2024/01/17 12:11:14;;;;;;;19.37;17.23;;;;;;;19.51;28.00;94731.19;6159654;28;110122;-49
2024/01/17 12:14:18;;;;;;;21.00;17.13;;;;;;;19.86;28.02;94734.19;6159280;28;109052;-50
2024/01/17 12:17:22;;;;;;;17.63;15.83;;;;;;;21.47;26.15;94743.81;6148530;28;109097;-50
2024/01/17 12:20:25;;;;;;;17.07;15.37;;;;;;;22.78;24.46;94753.53;6158693;28;108871;-50
2024/01/17 12:23:31;;;;;;;17.00;15.50;;;;;;;23.44;24.15;94744.09;6159304;28;110721;-52
2024/01/17 12:26:35;;;;;;;17.90;16.10;;;;;;;23.71;23.94;94724.16;6159425;28;110911;-50
2024/01/17 12:29:38;;;;;;;15.80;14.30;;;;;;;24.11;23.08;94731.78;6148713;28;110212;-50
2024/01/17 12:32:42;;;;;;;15.00;13.70;;;;;;;24.38;23.10;94717.91;6159339;28;110095;-50
2024/01/17 12:35:45;;;;;;;16.20;14.70;;;;;;;24.56;23.21;94707.81;6158888;28;109251;-50
2024/01/17 12:38:51;;;;;;;14.50;13.00;;;;;;;24.35;23.09;94715.06;6158705;28;109304;-50
2024/01/17 12:41:56;;;;;;;14.30;13.00;;;;;;;24.19;23.55;94722.91;6149027;28;109285;-50
2024/01/17 12:44:59;;;;;;;13.30;12.10;;;;;;;24.13;23.50;94706.28;6157737;28;108855;-49
2024/01/17 12:48:03;;;;;;;14.40;13.10;;;;;;;24.10;23.99;94687.44;6158496;28;109148;-49
2024/01/17 12:51:07;;;;;;;13.73;12.33;;;;;;;24.17;23.86;94696.50;6149176;28;109084;-50
2024/01/17 12:54:14;;;;;;;13.50;12.30;;;;;;;24.42;23.58;94672.53;6157935;28;109332;-50
2024/01/17 12:57:18;;;;;;;13.27;11.90;;;;;;;24.26;23.93;94659.00;6158475;28;109287;-50
2024/01/17 13:00:24;;;;;;;13.13;11.93;;;;;;;23.90;24.49;94656.91;6158314;28;109467;-50
2024/01/17 13:03:29;;;;;;;13.33;12.00;;;;;;;23.65;24.89;94656.00;6149199;28;110238;-50
2024/01/17 13:06:32;;;;;;;12.50;11.30;;;;;;;23.57;24.77;94654.16;6158567;28;110135;-49
2024/01/17 13:09:37;;;;;;;12.03;10.93;;;;;;;23.39;24.98;94655.38;6158091;28;109055;-49
2024/01/17 13:12:40;;;;;;;11.47;10.43;;;;;;;23.45;24.87;94638.06;6158182;28;109231;-49
2024/01/17 13:15:49;;;;;;;11.47;10.57;;;;;;;23.52;25.13;94649.00;6147068;28;110132;-49
2024/01/17 13:18:57;;;;;;;10.43;9.43;;;;;;;23.27;25.01;94640.81;6158344;28;110241;-49
2024/01/17 13:22:01;;;;;;;10.80;9.80;;;;;;;23.41;25.26;94635.25;6157892;28;109163;-50
2024/01/17 13:25:07;;;;;;;11.83;10.73;;;;;;;23.46;25.40;94632.38;6150463;28;109171;-51
2024/01/17 13:28:11;;;;;;;11.37;10.37;;;;;;;23.42;24.98;94631.47;6156950;28;110518;-49
2024/01/17 13:31:15;;;;;;;11.43;10.43;;;;;;;23.73;24.90;94619.66;6158290;28;110243;-50
2024/01/17 13:34:18;;;;;;;11.00;9.60;;;;;;;23.70;24.91;94613.06;6157949;28;109187;-49
2024/01/17 13:37:22;;;;;;;9.87;9.07;;;;;;;23.23;25.85;94623.88;6147574;28;110863;-49
2024/01/17 13:40:27;;;;;;;10.83;9.83;;;;;;;22.75;25.73;94612.81;6157764;28;110248;-50
2024/01/17 13:43:30;;;;;;;10.53;9.53;;;;;;;22.53;26.49;94613.78;6157935;28;109164;-50
2024/01/17 13:46:36;;;;;;;10.23;9.30;;;;;;;22.40;26.22;94628.88;6157974;28;110256;-50
2024/01/17 13:49:43;;;;;;;9.43;8.53;;;;;;;22.31;26.42;94628.88;6147639;28;110251;-54
2024/01/17 13:52:50;;;;;;;10.03;9.13;;;;;;;22.09;26.48;94608.56;6157576;28;108926;-52
2024/01/17 13:55:55;;;;;;;10.40;9.13;;;;;;;22.20;26.81;94629.56;6157780;28;109070;-52